Time;durP1;ratioP1;P1;durP2;ratioP2;P2;SDS_P1;SDS_P2;PMS_P1;PMS_P2;Temp;Humidity;BMP_temperature;BMP_pressure;BME280_temperature;BME280_humidity;BME280_pressure;Samples;Min_cycle;Max_cycle;Signal;HPM_P1;HPM_P2
2023/07/09 00:01:44;;;;;;;8.57;3.25;;;;;;;21.31;79.88;101073.56;5051098;28;20119;-69
2023/07/09 00:04:11;;;;;;;4.70;3.80;;;;;;;21.37;80.12;101076.22;5052834;28;20496;-69
2023/07/09 00:06:39;;;;;;;5.90;3.25;;;;;;;21.39;80.91;101076.84;5054484;28;20032;-68
2023/07/09 00:09:06;;;;;;;5.32;3.30;;;;;;;21.38;81.05;101085.00;5058783;28;20134;-68
2023/07/09 00:11:31;;;;;;;4.55;3.40;;;;;;;21.37;81.10;101080.72;5059970;28;20393;-68
2023/07/09 00:13:57;;;;;;;6.32;3.88;;;;;;;21.31;81.70;101081.50;5056879;28;20036;-68
2023/07/09 00:16:25;;;;;;;4.55;3.33;;;;;;;21.21;82.05;101079.25;5059534;28;20069;-68
2023/07/09 00:18:51;;;;;;;4.72;3.72;;;;;;;21.13;82.54;101082.06;5054652;28;20451;-68
2023/07/09 00:21:20;;;;;;;6.00;3.83;;;;;;;21.12;82.66;101078.59;5059021;28;20470;-68
2023/07/09 00:23:45;;;;;;;8.20;4.20;;;;;;;21.15;81.32;101082.66;5056640;28;20036;-68
2023/07/09 00:26:13;;;;;;;5.65;3.50;;;;;;;21.14;80.96;101081.03;5056394;28;20099;-69
2023/07/09 00:28:40;;;;;;;5.25;2.75;;;;;;;21.01;81.42;101080.97;5056857;28;20040;-68
2023/07/09 00:31:11;;;;;;;5.57;3.88;;;;;;;20.98;81.16;101076.06;5054383;28;20083;-68
2023/07/09 00:33:38;;;;;;;5.55;3.40;;;;;;;20.90;81.87;101085.00;5054341;28;20036;-67
2023/07/09 00:36:13;;;;;;;7.63;3.55;;;;;;;20.80;82.33;101074.78;5054659;28;20040;-68
2023/07/09 00:38:40;;;;;;;6.78;3.75;;;;;;;20.76;82.36;101084.16;5056262;28;20386;-67
2023/07/09 00:41:17;;;;;;;7.90;3.35;;;;;;;20.77;82.39;101075.19;5057776;28;20480;-69
2023/07/09 00:43:44;;;;;;;6.28;3.50;;;;;;;20.82;82.14;101083.34;5054021;28;20035;-68
2023/07/09 00:46:27;;;;;;;6.10;3.30;;;;;;;20.81;82.61;101083.53;5053684;28;20025;-68
2023/07/09 00:49:05;;;;;;;8.30;2.92;;;;;;;20.77;82.30;101074.38;5053953;28;20037;-68
2023/07/09 00:51:32;;;;;;;6.25;3.47;;;;;;;20.84;81.72;101076.00;5054477;28;20021;-68
2023/07/09 00:54:07;;;;;;;9.20;4.30;;;;;;;20.90;81.40;101082.34;5054078;28;20472;-69
2023/07/09 00:56:40;;;;;;;11.65;5.00;;;;;;;20.97;81.12;101095.63;5054086;28;20064;-68
2023/07/09 00:59:11;;;;;;;12.02;5.00;;;;;;;20.98;81.69;101091.97;5052778;28;20119;-68
2023/07/09 01:01:40;;;;;;;6.05;3.95;;;;;;;20.98;81.18;101091.97;5052954;28;20033;-69
2023/07/09 01:04:05;;;;;;;10.75;3.75;;;;;;;20.99;81.20;101093.59;5052864;28;20047;-68
2023/07/09 01:06:36;;;;;;;7.45;3.00;;;;;;;21.00;81.10;101104.00;5052332;28;20491;-69
2023/07/09 01:09:03;;;;;;;5.70;3.90;;;;;;;21.06;81.04;101094.44;5052142;28;20086;-68
2023/07/09 01:11:30;;;;;;;4.57;3.25;;;;;;;20.91;82.24;101101.72;5052214;28;20037;-68
2023/07/09 01:13:57;;;;;;;6.35;3.58;;;;;;;20.77;83.06;101099.03;5058403;28;20029;-69
2023/07/09 01:16:33;;;;;;;6.25;3.65;;;;;;;20.65;83.86;101103.22;5051044;28;20036;-68
2023/07/09 01:19:00;;;;;;;6.85;4.07;;;;;;;20.59;84.20;101096.06;5051277;28;20036;-69
2023/07/09 01:21:27;;;;;;;8.48;3.90;;;;;;;20.58;84.14;101097.06;5055974;28;20488;-68
2023/07/09 01:23:54;;;;;;;5.75;3.17;;;;;;;20.57;84.49;101094.63;5057773;28;20082;-68
2023/07/09 01:26:24;;;;;;;5.88;3.30;;;;;;;20.54;84.62;101093.19;5050148;28;20119;-69
2023/07/09 01:28:50;;;;;;;4.78;3.60;;;;;;;20.54;84.74;101090.53;5057285;28;20102;-68
2023/07/09 01:31:16;;;;;;;5.47;3.90;;;;;;;20.50;85.33;101089.28;5049842;28;20036;-68
2023/07/09 01:33:44;;;;;;;5.22;3.25;;;;;;;20.51;84.69;101085.63;5065143;28;20025;-68
2023/07/09 01:36:13;;;;;;;4.85;3.78;;;;;;;20.53;84.76;101083.59;5063782;28;20487;-69
2023/07/09 01:38:40;;;;;;;6.45;3.55;;;;;;;20.57;84.70;101082.19;5067807;28;20488;-69
2023/07/09 01:41:06;;;;;;;6.43;3.50;;;;;;;20.63;84.40;101083.25;5064761;28;20037;-69
2023/07/09 01:43:32;;;;;;;6.63;3.90;;;;;;;20.71;83.45;101073.31;5049901;28;20437;-68
2023/07/09 01:45:58;;;;;;;5.53;3.40;;;;;;;20.79;82.95;101077.66;5056720;28;20060;-68
2023/07/09 01:48:27;;;;;;;10.43;3.83;;;;;;;20.82;82.75;101077.22;5068740;28;20068;-68
2023/07/09 01:50:54;;;;;;;5.47;4.18;;;;;;;20.80;83.43;101073.94;5067619;28;20634;-69
2023/07/09 01:53:23;;;;;;;6.10;3.88;;;;;;;20.74;84.24;101080.06;5067975;28;20056;-68
2023/07/09 01:55:50;;;;;;;7.43;3.47;;;;;;;20.65;85.33;101079.41;5060192;28;20083;-69
2023/07/09 01:58:16;;;;;;;5.28;3.63;;;;;;;20.58;85.63;101075.91;5067160;28;20377;-69
2023/07/09 02:00:41;;;;;;;7.57;3.95;;;;;;;20.60;85.85;101071.22;5063862;28;20039;-68
2023/07/09 02:03:07;;;;;;;8.48;4.70;;;;;;;20.58;85.99;101081.19;5059278;28;20098;-68
2023/07/09 02:05:33;;;;;;;6.50;4.10;;;;;;;20.57;85.99;101078.75;5062260;28;20044;-68
2023/07/09 02:07:59;;;;;;;9.00;3.92;;;;;;;20.51;86.70;101085.63;5065316;28;20033;-68
2023/07/09 02:10:25;;;;;;;4.15;3.30;;;;;;;20.52;87.24;101081.97;5060397;28;20028;-69
2023/07/09 02:12:50;;;;;;;7.50;3.65;;;;;;;20.45;87.40;101081.91;5062088;28;20366;-69
2023/07/09 02:15:16;;;;;;;7.68;3.38;;;;;;;20.40;87.18;101083.50;5064960;28;20047;-68
2023/07/09 02:17:42;;;;;;;7.63;3.90;;;;;;;20.48;86.41;101088.66;5051665;28;20025;-69
2023/07/09 02:20:09;;;;;;;5.82;3.67;;;;;;;20.50;85.78;101092.75;5060227;28;20033;-68
2023/07/09 02:22:36;;;;;;;8.52;3.65;;;;;;;20.52;85.65;101093.38;5060172;28;20072;-68
2023/07/09 02:25:03;;;;;;;6.45;3.78;;;;;;;20.53;86.22;101097.66;5058171;28;20151;-67
2023/07/09 02:27:29;;;;;;;7.10;3.42;;;;;;;20.50;86.52;101084.00;5062782;28;20119;-68
2023/07/09 02:29:54;;;;;;;5.88;3.60;;;;;;;20.46;86.48;101093.31;5054025;28;20120;-68
2023/07/09 02:32:28;;;;;;;7.18;4.25;;;;;;;20.41;86.48;101091.25;5055318;28;20040;-69
2023/07/09 02:34:54;;;;;;;8.23;3.90;;;;;;;20.41;86.39;101093.91;5061038;28;20082;-68
2023/07/09 02:37:25;;;;;;;7.57;4.00;;;;;;;20.43;86.43;101093.72;5056032;28;20032;-68
2023/07/09 02:39:51;;;;;;;7.25;4.35;;;;;;;20.43;86.63;101099.00;5063314;28;20057;-68
2023/07/09 02:42:19;;;;;;;6.35;4.10;;;;;;;20.40;86.81;101099.38;5068830;28;20380;-67
2023/07/09 02:44:45;;;;;;;6.75;3.15;;;;;;;20.41;86.43;101098.38;5063585;28;20035;-67
2023/07/09 02:47:11;;;;;;;7.60;4.07;;;;;;;20.40;86.65;101096.75;5058383;28;20452;-68
2023/07/09 02:49:37;;;;;;;7.18;4.20;;;;;;;20.40;86.42;101102.84;5064345;28;20078;-68
2023/07/09 02:52:03;;;;;;;5.97;3.65;;;;;;;20.36;86.88;101108.69;5060351;28;20037;-68
2023/07/09 02:54:30;;;;;;;4.68;3.45;;;;;;;20.33;86.92;101104.59;5065071;28;20036;-69
2023/07/09 02:56:55;;;;;;;6.05;4.03;;;;;;;20.26;87.69;101110.88;5065406;28;20040;-69
2023/07/09 02:59:21;;;;;;;7.72;4.32;;;;;;;20.24;87.81;101111.06;5061033;28;20036;-68
2023/07/09 03:01:47;;;;;;;5.55;3.83;;;;;;;20.23;87.79;101108.63;5061993;28;20429;-68
2023/07/09 03:04:14;;;;;;;9.85;4.22;;;;;;;20.25;87.80;101111.91;5063581;28;20042;-69
2023/07/09 03:06:40;;;;;;;6.40;3.58;;;;;;;20.26;87.81;101116.19;5059184;28;20032;-68
2023/07/09 03:09:06;;;;;;;6.07;3.95;;;;;;;20.31;87.73;101111.94;5062030;28;20032;-69
2023/07/09 03:11:34;;;;;;;5.95;3.92;;;;;;;20.34;87.81;101105.41;5064053;28;20429;-68
2023/07/09 03:14:01;;;;;;;11.00;4.10;;;;;;;20.33;87.61;101115.19;5060444;28;20082;-68
2023/07/09 03:16:28;;;;;;;5.95;3.67;;;;;;;20.33;87.85;101119.66;5063743;28;20075;-68
2023/07/09 03:18:55;;;;;;;4.65;3.28;;;;;;;20.36;87.68;101121.91;5055030;28;20120;-69
2023/07/09 03:21:23;;;;;;;10.57;3.92;;;;;;;20.37;87.67;101120.91;5065550;28;20048;-68
2023/07/09 03:23:49;;;;;;;4.75;3.42;;;;;;;20.42;87.12;101123.84;5057501;28;20488;-68
2023/07/09 03:26:15;;;;;;;4.38;3.65;;;;;;;20.44;87.27;101127.09;5066274;28;20036;-69
2023/07/09 03:28:40;;;;;;;6.25;3.50;;;;;;;20.37;87.86;101128.84;5060022;28;20384;-69
2023/07/09 03:31:07;;;;;;;6.07;3.40;;;;;;;20.36;87.80;101135.16;5057101;28;20033;-69
2023/07/09 03:33:32;;;;;;;10.77;4.32;;;;;;;20.31;87.73;101137.59;5056449;28;20040;-69
2023/07/09 03:35:58;;;;;;;6.05;4.22;;;;;;;20.31;88.31;101133.13;5055353;28;20033;-68
2023/07/09 03:38:23;;;;;;;5.80;3.95;;;;;;;20.30;88.34;101135.94;5056385;28;20452;-68
2023/07/09 03:40:55;;;;;;;6.30;3.83;;;;;;;20.26;89.06;101134.69;5054559;28;20045;-68
2023/07/09 03:43:22;;;;;;;5.43;3.58;;;;;;;20.22;89.21;101144.84;5054143;28;20072;-68
2023/07/09 03:45:50;;;;;;;5.82;3.63;;;;;;;20.18;89.71;101133.00;5054601;28;20027;-68
2023/07/09 03:48:17;;;;;;;7.85;4.68;;;;;;;20.13;90.52;101133.56;5058223;28;20070;-68
2023/07/09 03:50:45;;;;;;;5.45;3.75;;;;;;;20.09;90.93;101140.25;5053025;28;20401;-69
2023/07/09 03:53:12;;;;;;;6.55;3.97;;;;;;;20.10;90.85;101130.47;5064290;28;20051;-69
2023/07/09 03:55:39;;;;;;;5.57;4.07;;;;;;;20.11;91.21;101138.22;5066802;28;20036;-69
2023/07/09 03:58:04;;;;;;;7.47;3.78;;;;;;;20.11;90.95;101137.41;5069353;28;20054;-69
2023/07/09 04:00:31;;;;;;;7.78;4.45;;;;;;;20.14;91.12;101142.31;5067631;28;20536;-68
2023/07/09 04:02:57;;;;;;;5.70;4.13;;;;;;;20.13;90.73;101138.88;5060857;28;20082;-68
2023/07/09 04:05:24;;;;;;;9.30;3.90;;;;;;;20.16;90.87;101143.78;5065737;28;20187;-68
2023/07/09 04:07:50;;;;;;;11.38;3.70;;;;;;;20.14;91.14;101137.84;5063365;28;20108;-68
2023/07/09 04:10:17;;;;;;;6.00;4.03;;;;;;;20.14;91.04;101142.31;5065802;28;20074;-68
2023/07/09 04:12:43;;;;;;;5.95;3.85;;;;;;;20.14;91.10;101137.03;5064419;28;20166;-67
2023/07/09 04:15:09;;;;;;;6.47;4.45;;;;;;;20.09;92.00;101139.44;5059092;28;20466;-68
2023/07/09 04:17:35;;;;;;;6.47;3.60;;;;;;;20.07;92.62;101142.25;5058644;28;20056;-69
2023/07/09 04:20:05;;;;;;;5.72;4.10;;;;;;;20.05;92.55;101139.00;5060819;28;20116;-68
2023/07/09 04:22:32;;;;;;;6.55;3.67;;;;;;;20.09;92.45;101150.81;5061147;28;20497;-67
2023/07/09 04:24:58;;;;;;;7.88;4.15;;;;;;;20.07;93.01;101141.44;5058214;28;20036;-67
2023/07/09 04:27:27;;;;;;;6.53;3.95;;;;;;;20.05;93.10;101128.41;5060004;28;20033;-68
2023/07/09 04:29:54;;;;;;;5.18;3.83;;;;;;;20.08;93.79;101137.78;5056648;28;20120;-68
2023/07/09 04:32:21;;;;;;;7.00;3.90;;;;;;;20.12;93.78;101136.41;5054380;28;20040;-68
2023/07/09 04:34:47;;;;;;;16.77;4.22;;;;;;;20.17;93.52;101134.81;5055301;28;20024;-67
2023/07/09 04:37:16;;;;;;;7.15;4.22;;;;;;;20.23;92.66;101135.91;5054460;28;20062;-66
2023/07/09 04:39:43;;;;;;;5.78;3.70;;;;;;;20.34;92.30;101138.00;5053108;28;20052;-68
2023/07/09 04:42:12;;;;;;;5.25;3.72;;;;;;;20.48;91.68;101134.47;5055452;28;20424;-67
2023/07/09 04:44:39;;;;;;;7.03;3.58;;;;;;;20.54;90.65;101128.41;5064415;28;20036;-68
2023/07/09 04:47:05;;;;;;;5.20;3.75;;;;;;;20.67;89.77;101127.69;5056259;28;20408;-67
2023/07/09 04:49:30;;;;;;;7.53;3.75;;;;;;;20.77;89.41;101127.34;5050488;28;20068;-68
2023/07/09 04:51:58;;;;;;;5.75;3.90;;;;;;;20.81;89.11;101125.91;5041800;28;20064;-68
2023/07/09 04:54:26;;;;;;;8.80;3.90;;;;;;;20.90;88.92;101132.69;5053046;28;20036;-67
2023/07/09 04:56:52;;;;;;;6.47;3.75;;;;;;;20.94;88.95;101133.09;5067664;28;20125;-67
2023/07/09 04:59:18;;;;;;;5.22;3.85;;;;;;;21.04;88.99;101141.53;5063724;28;20554;-66
2023/07/09 05:01:43;;;;;;;6.55;3.83;;;;;;;20.93;89.31;101142.06;5058684;28;20127;-66
2023/07/09 05:04:09;;;;;;;7.57;3.70;;;;;;;20.93;89.41;101144.72;5065215;28;20028;-66
2023/07/09 05:06:35;;;;;;;5.88;4.05;;;;;;;20.98;89.46;101144.94;5064522;28;20040;-65
2023/07/09 05:09:02;;;;;;;8.70;4.10;;;;;;;20.92;89.83;101143.09;5063010;28;20032;-67
2023/07/09 05:11:27;;;;;;;5.65;3.50;;;;;;;20.88;90.18;101146.13;5055577;28;20032;-67
2023/07/09 05:13:54;;;;;;;6.07;3.75;;;;;;;20.97;89.94;101143.31;5056985;28;20028;-67
2023/07/09 05:16:20;;;;;;;6.30;3.30;;;;;;;20.95;89.88;101142.69;5063422;28;20028;-67
2023/07/09 05:18:46;;;;;;;5.68;4.18;;;;;;;21.03;89.59;101151.28;5059479;28;20033;-67
2023/07/09 05:21:13;;;;;;;4.63;3.50;;;;;;;21.14;89.30;101145.44;5060579;28;20037;-67
2023/07/09 05:23:38;;;;;;;6.47;4.18;;;;;;;21.25;88.99;101138.81;5059160;28;20147;-68
2023/07/09 05:26:09;;;;;;;5.70;3.83;;;;;;;21.34;88.16;101139.41;5055364;28;20128;-67
2023/07/09 05:28:35;;;;;;;6.07;4.10;;;;;;;21.46;87.88;101146.59;5059050;28;20469;-68
2023/07/09 05:31:07;;;;;;;7.25;3.38;;;;;;;21.61;87.20;101145.63;5054714;28;20116;-65
2023/07/09 05:33:33;;;;;;;10.02;4.18;;;;;;;21.73;86.52;101146.69;5053989;28;20040;-65
2023/07/09 05:35:58;;;;;;;7.82;3.90;;;;;;;21.84;86.04;101151.38;5060164;28;20029;-64
2023/07/09 05:38:24;;;;;;;7.93;3.28;;;;;;;21.89;85.99;101153.41;5059723;28;20122;-65
2023/07/09 05:40:59;;;;;;;5.60;3.63;;;;;;;21.96;85.47;101160.38;5056594;28;20051;-65
2023/07/09 05:43:25;;;;;;;5.78;3.53;;;;;;;22.06;85.04;101150.22;5059682;28;20036;-65
2023/07/09 05:45:50;;;;;;;5.75;4.18;;;;;;;22.11;84.80;101152.25;5062638;28;20094;-64
2023/07/09 05:48:16;;;;;;;4.68;3.80;;;;;;;22.18;84.60;101155.75;5062677;28;20032;-64
2023/07/09 05:50:41;;;;;;;6.15;3.63;;;;;;;22.35;83.61;101156.94;5063499;28;20041;-64
2023/07/09 05:53:07;;;;;;;5.63;3.72;;;;;;;22.38;83.62;101153.88;5057460;28;20051;-64
2023/07/09 05:55:33;;;;;;;5.10;3.83;;;;;;;22.35;83.93;101159.59;5061179;28;20641;-65
2023/07/09 05:57:59;;;;;;;7.10;4.28;;;;;;;22.43;84.14;101166.53;5068746;28;20040;-65
2023/07/09 06:00:25;;;;;;;6.53;3.90;;;;;;;22.36;83.96;101165.72;5063170;28;20037;-65
2023/07/09 06:02:51;;;;;;;5.60;4.03;;;;;;;22.11;84.96;101163.69;5067554;28;20020;-64
2023/07/09 06:05:16;;;;;;;6.35;3.63;;;;;;;22.04;85.11;101156.75;5068878;28;20477;-64
2023/07/09 06:07:42;;;;;;;5.13;4.07;;;;;;;22.03;85.05;101155.94;5067435;28;20039;-65
2023/07/09 06:10:09;;;;;;;6.65;4.35;;;;;;;22.07;85.39;101159.00;5069089;28;20028;-65
2023/07/09 06:12:35;;;;;;;6.88;4.22;;;;;;;22.14;85.11;101167.78;5072093;28;20036;-67
2023/07/09 06:15:00;;;;;;;7.13;4.45;;;;;;;22.12;85.00;101165.34;5072141;28;20020;-64
2023/07/09 06:17:26;;;;;;;5.75;4.00;;;;;;;22.10;85.07;101162.06;5075452;28;20032;-65
2023/07/09 06:19:51;;;;;;;8.48;4.18;;;;;;;22.13;84.85;101160.84;5071222;28;20552;-66
2023/07/09 06:22:17;;;;;;;5.78;3.67;;;;;;;22.17;84.60;101162.88;5068121;28;20452;-65
2023/07/09 06:24:42;;;;;;;6.25;3.38;;;;;;;22.23;84.35;101157.75;5071869;28;20105;-65
2023/07/09 06:27:09;;;;;;;7.85;3.92;;;;;;;22.34;83.96;101157.97;5071656;28;20035;-65
2023/07/09 06:29:34;;;;;;;8.95;4.88;;;;;;;22.41;83.91;101156.13;5071714;28;20028;-65
2023/07/09 06:32:00;;;;;;;8.10;3.83;;;;;;;22.49;83.78;101160.41;5072799;28;20078;-65
2023/07/09 06:34:25;;;;;;;5.60;3.78;;;;;;;22.52;83.43;101152.84;5069962;28;20043;-64
2023/07/09 06:36:51;;;;;;;5.03;3.95;;;;;;;22.49;83.53;101152.44;5070021;28;20033;-65
2023/07/09 06:39:19;;;;;;;8.30;4.10;;;;;;;22.66;82.99;101156.31;5071282;28;20108;-64
2023/07/09 06:41:45;;;;;;;5.35;3.42;;;;;;;22.97;82.21;101146.84;5068526;28;20033;-64
2023/07/09 06:44:10;;;;;;;11.13;4.38;;;;;;;23.28;80.81;101149.59;5068587;28;20498;-64
2023/07/09 06:46:36;;;;;;;5.63;3.83;;;;;;;23.45;80.03;101161.38;5071030;28;20040;-65
2023/07/09 06:49:05;;;;;;;6.88;4.13;;;;;;;23.67;79.02;101159.22;5068419;28;20541;-64
2023/07/09 06:51:31;;;;;;;7.15;4.00;;;;;;;23.77;78.62;101158.75;5065968;28;20448;-65
2023/07/09 06:53:57;;;;;;;5.40;3.92;;;;;;;23.90;78.26;101163.19;5069139;28;20032;-65
2023/07/09 06:56:23;;;;;;;6.75;3.80;;;;;;;23.93;78.29;101158.25;5071414;28;20048;-64
2023/07/09 06:58:49;;;;;;;4.80;3.40;;;;;;;23.86;78.07;101169.97;5071288;28;20392;-65
2023/07/09 07:01:14;;;;;;;7.60;4.57;;;;;;;23.83;78.70;101168.53;5068162;28;20546;-65
2023/07/09 07:03:40;;;;;;;7.25;3.45;;;;;;;23.98;78.60;101166.41;5062148;28;20032;-64
2023/07/09 07:06:06;;;;;;;8.85;3.35;;;;;;;24.09;77.99;101163.06;5071557;28;20024;-65
2023/07/09 07:08:32;;;;;;;5.40;3.50;;;;;;;24.14;77.31;101160.53;5071169;28;20116;-65
2023/07/09 07:11:02;;;;;;;4.20;3.03;;;;;;;24.28;76.32;101155.13;5062457;28;20456;-65
2023/07/09 07:13:34;;;;;;;5.32;3.60;;;;;;;24.44;74.75;101165.25;5067585;28;20388;-64
2023/07/09 07:16:01;;;;;;;5.50;3.50;;;;;;;24.50;75.32;101163.56;5063964;28;20112;-65
2023/07/09 07:18:27;;;;;;;6.13;3.45;;;;;;;24.74;74.71;101158.16;5069194;28;20064;-65
2023/07/09 07:20:53;;;;;;;4.55;3.80;;;;;;;24.97;74.12;101159.41;5066290;28;20072;-65
2023/07/09 07:23:18;;;;;;;7.22;4.55;;;;;;;25.12;73.60;101162.47;5070246;28;20032;-65
2023/07/09 07:25:45;;;;;;;6.20;3.55;;;;;;;25.16;73.13;101155.66;5070900;28;20036;-65
2023/07/09 07:28:11;;;;;;;7.13;4.00;;;;;;;25.31;73.12;101156.09;5066822;28;20510;-65
2023/07/09 07:30:36;;;;;;;7.80;3.50;;;;;;;25.34;72.87;101150.31;5073791;28;20118;-65
2023/07/09 07:33:03;;;;;;;4.85;3.20;;;;;;;25.49;72.70;101146.44;5066508;28;20040;-66
2023/07/09 07:35:28;;;;;;;3.97;3.17;;;;;;;25.68;71.12;101150.69;5067500;28;20115;-65
2023/07/09 07:37:54;;;;;;;5.78;3.85;;;;;;;25.76;71.16;101145.03;5066084;28;20123;-65
2023/07/09 07:40:19;;;;;;;10.77;3.40;;;;;;;25.89;70.23;101144.84;5063614;28;20043;-66
2023/07/09 07:42:46;;;;;;;4.03;3.33;;;;;;;25.96;70.22;101153.56;5065024;28;20037;-65
2023/07/09 07:45:12;;;;;;;4.53;3.50;;;;;;;26.07;70.18;101151.94;5065198;28;20032;-65
2023/07/09 07:47:39;;;;;;;5.47;3.50;;;;;;;26.21;69.94;101144.53;5062753;28;20035;-65
2023/07/09 07:50:06;;;;;;;7.93;3.88;;;;;;;26.34;68.65;101142.47;5065244;28;20036;-65
2023/07/09 07:52:31;;;;;;;6.57;4.18;;;;;;;26.43;68.34;101142.94;5063822;28;20056;-65
2023/07/09 07:54:57;;;;;;;4.80;3.53;;;;;;;26.56;67.92;101147.22;5064839;28;20059;-65
2023/07/09 07:57:26;;;;;;;4.80;3.80;;;;;;;26.73;66.96;101148.94;5063284;28;20024;-65
2023/07/09 07:59:51;;;;;;;5.30;3.70;;;;;;;26.83;66.82;101142.19;5064666;28;20532;-65
2023/07/09 08:02:16;;;;;;;7.07;4.28;;;;;;;26.80;65.80;101134.66;5068514;28;20124;-65
2023/07/09 08:04:42;;;;;;;5.55;3.85;;;;;;;27.10;65.45;101132.63;5065618;28;20057;-66
2023/07/09 08:07:09;;;;;;;4.25;3.45;;;;;;;27.20;65.42;101143.50;5070427;28;20024;-65
2023/07/09 08:09:35;;;;;;;6.88;3.92;;;;;;;27.31;64.38;101131.97;5060560;28;20063;-65
2023/07/09 08:12:08;;;;;;;6.35;3.55;;;;;;;27.42;64.32;101135.63;5063449;28;20056;-65
2023/07/09 08:14:34;;;;;;;6.30;4.05;;;;;;;27.49;63.33;101136.28;5066523;28;20032;-65
2023/07/09 08:16:59;;;;;;;7.50;3.92;;;;;;;27.49;63.29;101130.94;5077376;28;20439;-65
2023/07/09 08:19:25;;;;;;;4.20;3.78;;;;;;;27.68;63.71;101132.38;5068260;28;20048;-66
2023/07/09 08:21:50;;;;;;;6.28;3.72;;;;;;;27.78;63.57;101138.97;5070376;28;20024;-66
2023/07/09 08:24:16;;;;;;;6.90;4.15;;;;;;;27.76;62.32;101131.19;5072851;28;20032;-66
2023/07/09 08:26:41;;;;;;;4.72;3.88;;;;;;;27.68;62.61;101129.72;5066943;28;20024;-66
2023/07/09 08:29:07;;;;;;;6.65;4.22;;;;;;;27.86;62.70;101136.72;5070297;28;20051;-66
2023/07/09 08:31:32;;;;;;;6.90;4.07;;;;;;;28.19;62.71;101135.06;5069431;28;20435;-66
2023/07/09 08:33:57;;;;;;;5.93;3.67;;;;;;;28.12;62.23;101135.25;5068912;28;20387;-66
2023/07/09 08:36:23;;;;;;;5.35;4.05;;;;;;;28.18;62.19;101139.63;5071135;28;20082;-65
2023/07/09 08:38:49;;;;;;;7.50;3.97;;;;;;;28.34;60.75;101132.66;5065139;28;20493;-65
2023/07/09 08:41:32;;;;;;;6.18;3.75;;;;;;;28.39;60.23;101132.72;5068096;28;20488;-65
2023/07/09 08:44:00;;;;;;;6.15;4.00;;;;;;;28.37;59.61;101121.41;5067948;28;20396;-64
2023/07/09 08:47:05;;;;;;;6.85;3.63;;;;;;;28.48;58.96;101122.38;5064188;28;20036;-65
2023/07/09 08:49:40;;;;;;;6.05;3.53;;;;;;;28.59;59.20;101124.97;5062723;28;20041;-64
2023/07/09 08:52:32;;;;;;;5.07;3.20;;;;;;;28.85;59.25;101117.25;5063579;28;20024;-65
2023/07/09 08:55:02;;;;;;;5.88;4.30;;;;;;;28.86;57.63;101118.88;5071677;28;20051;-65
2023/07/09 08:57:34;;;;;;;5.53;3.95;;;;;;;28.83;58.72;101112.13;5069029;28;20377;-69
2023/07/09 09:00:07;;;;;;;5.80;3.33;;;;;;;28.90;59.26;101114.63;5066573;28;20038;-66
2023/07/09 09:02:39;;;;;;;4.00;3.45;;;;;;;29.02;59.12;101123.38;5067868;28;20492;-68
2023/07/09 09:05:05;;;;;;;8.30;3.90;;;;;;;29.18;58.66;101116.31;5067019;28;20035;-68
2023/07/09 09:07:42;;;;;;;13.07;4.43;;;;;;;29.36;57.36;101111.38;5066880;28;20525;-68
2023/07/09 09:10:17;;;;;;;4.50;3.63;;;;;;;29.34;56.56;101110.81;5061534;28;20384;-74
2023/07/09 09:13:09;;;;;;;5.75;3.38;;;;;;;29.25;54.70;101114.25;5064265;28;20471;-69
2023/07/09 09:15:38;;;;;;;4.18;3.38;;;;;;;29.27;55.98;101110.25;5064544;28;20027;-68
2023/07/09 09:18:19;;;;;;;5.40;3.40;;;;;;;29.43;55.87;101107.72;5063258;28;20025;-69
2023/07/09 09:20:51;;;;;;;6.78;3.70;;;;;;;29.35;57.05;101114.31;5061701;28;20108;-67
2023/07/09 09:23:17;;;;;;;5.07;3.20;;;;;;;29.22;58.02;101110.19;5058846;28;20036;-68
2023/07/09 09:25:52;;;;;;;5.90;4.25;;;;;;;29.28;57.35;101116.41;5058185;28;20063;-68
2023/07/09 09:28:18;;;;;;;5.68;4.15;;;;;;;29.46;57.70;101112.56;5058780;28;20044;-68
2023/07/09 09:30:43;;;;;;;4.03;3.38;;;;;;;29.57;57.55;101115.09;5065315;28;20085;-68
2023/07/09 09:33:14;;;;;;;5.40;3.85;;;;;;;29.48;57.42;101110.44;5063097;28;20033;-68
2023/07/09 09:35:43;;;;;;;4.95;3.50;;;;;;;29.58;56.83;101113.22;5061893;28;20033;-67
2023/07/09 09:38:22;;;;;;;4.90;3.58;;;;;;;29.37;56.03;101110.31;5062915;28;20029;-67
2023/07/09 09:40:48;;;;;;;7.28;3.40;;;;;;;29.68;57.30;101113.34;5061296;28;20168;-67
2023/07/09 09:43:20;;;;;;;4.20;3.42;;;;;;;30.05;57.16;101108.00;5060571;28;20463;-66
2023/07/09 09:45:48;;;;;;;5.40;3.40;;;;;;;30.28;56.05;101106.78;5061314;28;20389;-67
2023/07/09 09:48:20;;;;;;;4.53;3.30;;;;;;;30.50;53.44;101107.47;5064705;28;20537;-67
2023/07/09 09:50:47;;;;;;;4.63;3.80;;;;;;;30.35;54.38;101104.69;5068652;28;20480;-66
2023/07/09 09:53:20;;;;;;;5.55;3.38;;;;;;;30.41;54.44;101109.03;5066620;28;20060;-67
2023/07/09 09:55:47;;;;;;;4.97;3.42;;;;;;;30.62;54.50;101105.41;5065676;28;20037;-67
2023/07/09 09:58:17;;;;;;;3.30;3.00;;;;;;;30.45;54.71;101098.56;5064448;28;20163;-67
2023/07/09 10:00:54;;;;;;;5.75;3.90;;;;;;;30.08;54.36;101098.63;5067579;28;20025;-67
2023/07/09 10:03:20;;;;;;;4.45;3.30;;;;;;;30.15;55.59;101096.50;5067513;28;20056;-67
2023/07/09 10:05:56;;;;;;;5.32;3.50;;;;;;;30.02;55.47;101095.09;5063799;28;20064;-66
2023/07/09 10:08:44;;;;;;;3.55;2.55;;;;;;;30.13;56.43;101095.97;5066961;28;20104;-67
2023/07/09 10:11:20;;;;;;;5.93;3.53;;;;;;;30.22;53.96;101086.34;5066220;28;20369;-66
2023/07/09 10:13:48;;;;;;;4.70;3.30;;;;;;;30.13;55.03;101095.97;5068688;28;20032;-67
2023/07/09 10:16:44;;;;;;;5.15;3.38;;;;;;;30.04;54.07;101101.81;5066683;28;20032;-67
2023/07/09 10:19:32;;;;;;;3.78;3.00;;;;;;;30.09;53.83;101098.34;5067344;28;20031;-66
2023/07/09 10:22:06;;;;;;;4.80;2.95;;;;;;;30.11;54.38;101092.72;5065418;28;20519;-66
2023/07/09 10:24:45;;;;;;;6.88;3.85;;;;;;;30.12;54.02;101095.16;5068374;28;20037;-67
2023/07/09 10:27:20;;;;;;;4.38;2.88;;;;;;;30.22;53.40;101105.16;5071162;28;20028;-67
2023/07/09 10:29:57;;;;;;;;;;;;;;;30.15;53.34;101083.88;5069963;28;20033;-67
2023/07/09 10:33:00;;;;;;;5.65;3.10;;;;;;;30.29;53.71;101100.34;5069657;28;20431;-67
2023/07/09 10:35:39;;;;;;;8.43;3.67;;;;;;;30.36;53.54;101090.16;5068586;28;20089;-67
2023/07/09 10:38:20;;;;;;;6.75;3.13;;;;;;;30.39;52.97;101089.66;5063029;28;20063;-67
2023/07/09 10:41:09;;;;;;;5.60;3.58;;;;;;;30.55;53.98;101088.66;5060108;28;20044;-67
2023/07/09 10:43:41;;;;;;;5.97;3.80;;;;;;;30.57;53.44;101080.38;5059193;28;20557;-67
2023/07/09 10:46:32;;;;;;;4.65;3.60;;;;;;;30.45;52.29;101085.91;5058791;28;20040;-66
2023/07/09 10:48:59;;;;;;;5.45;3.47;;;;;;;30.38;52.91;101088.03;5055444;28;20086;-66
2023/07/09 10:51:32;;;;;;;5.15;3.13;;;;;;;30.19;53.52;101084.19;5060290;28;20476;-66
2023/07/09 10:54:07;;;;;;;4.75;3.08;;;;;;;30.27;52.70;101086.34;5071729;28;20044;-67
2023/07/09 10:56:38;;;;;;;4.88;3.30;;;;;;;30.42;52.77;101077.56;5053945;28;20062;-67
2023/07/09 10:59:20;;;;;;;4.65;3.05;;;;;;;30.53;52.15;101085.44;5055094;28;20040;-66
2023/07/09 11:01:55;;;;;;;4.47;2.50;;;;;;;30.63;52.65;101082.81;5053222;28;20039;-67
2023/07/09 11:04:37;;;;;;;3.85;3.20;;;;;;;30.82;52.68;101082.31;5060763;28;20036;-67
2023/07/09 11:07:14;;;;;;;3.47;3.05;;;;;;;30.91;52.20;101072.69;5067146;28;20056;-67
2023/07/09 11:09:43;;;;;;;4.60;3.22;;;;;;;31.06;51.44;101078.09;5055596;28;20053;-68
2023/07/09 11:12:27;;;;;;;4.80;3.38;;;;;;;30.96;50.57;101081.56;5065850;28;20481;-67
2023/07/09 11:14:59;;;;;;;5.10;3.83;;;;;;;30.83;50.76;101079.38;5067308;28;20024;-68
2023/07/09 11:17:28;;;;;;;4.40;3.85;;;;;;;30.64;50.78;101076.38;5061446;28;20040;-67
2023/07/09 11:19:55;;;;;;;7.88;3.53;;;;;;;30.66;50.19;101082.28;5064482;28;20021;-66
2023/07/09 11:22:27;;;;;;;5.93;3.22;;;;;;;30.46;50.85;101086.72;5070642;28;20047;-67
2023/07/09 11:25:10;;;;;;;3.45;2.92;;;;;;;30.35;50.74;101078.59;5065607;28;20032;-67
2023/07/09 11:27:57;;;;;;;6.50;2.88;;;;;;;30.40;50.48;101068.94;5065079;28;20509;-67
2023/07/09 11:30:25;;;;;;;7.60;3.00;;;;;;;30.38;50.54;101072.72;5066765;28;20117;-66
2023/07/09 11:33:01;;;;;;;4.88;3.17;;;;;;;30.30;50.49;101075.09;5069230;28;20028;-67